Time;durP1;ratioP1;P1;durP2;ratioP2;P2;SDS_P1;SDS_P2;PMS_P1;PMS_P2;Temp;Humidity;BMP_temperature;BMP_pressure;BME280_temperature;BME280_humidity;BME280_pressure;Samples;Min_cycle;Max_cycle;Signal;HPM_P1;HPM_P2
2021/12/06 00:01:34;;;;;;;28.05;22.45;;;2.30;99.90;;;;;;4961824;28;20035;-65
2021/12/06 00:04:08;;;;;;;28.30;21.48;;;2.30;99.90;;;;;;4959343;28;20376;-65
2021/12/06 00:06:37;;;;;;;28.52;22.65;;;2.30;99.90;;;;;;4960716;28;20039;-65
2021/12/06 00:09:14;;;;;;;28.80;22.85;;;2.30;99.90;;;;;;4967141;28;20047;-66
2021/12/06 00:11:39;;;;;;;28.95;21.38;;;2.20;99.90;;;;;;4968150;28;20062;-65
2021/12/06 00:14:06;;;;;;;30.05;22.80;;;2.30;99.90;;;;;;4959680;28;20035;-65
2021/12/06 00:16:32;;;;;;;34.38;25.33;;;2.20;99.90;;;;;;4953492;28;20030;-65
2021/12/06 00:18:58;;;;;;;35.15;25.13;;;2.30;99.90;;;;;;4958607;28;20387;-65
2021/12/06 00:21:24;;;;;;;33.22;24.67;;;2.20;99.90;;;;;;4958749;28;20039;-65
2021/12/06 00:23:50;;;;;;;38.45;27.15;;;2.20;99.90;;;;;;4960766;28;21164;-65
2021/12/06 00:26:16;;;;;;;37.25;26.75;;;2.20;99.90;;;;;;4958575;28;20233;-65
2021/12/06 00:28:45;;;;;;;37.90;25.63;;;2.20;99.90;;;;;;4965303;28;20081;-65
2021/12/06 00:31:12;;;;;;;41.55;27.35;;;2.20;99.90;;;;;;4958084;28;20039;-65
2021/12/06 00:33:39;;;;;;;40.25;27.33;;;2.20;99.90;;;;;;4964303;28;20051;-65
2021/12/06 00:36:15;;;;;;;43.42;29.75;;;2.10;99.90;;;;;;4956800;28;20503;-65
2021/12/06 00:38:42;;;;;;;42.38;28.50;;;2.10;99.90;;;;;;4958885;28;20054;-65
2021/12/06 00:41:08;;;;;;;39.40;27.45;;;2.10;99.90;;;;;;4958414;28;20476;-65
2021/12/06 00:43:34;;;;;;;43.08;29.33;;;2.10;99.90;;;;;;4960862;28;20055;-65
2021/12/06 00:46:00;;;;;;;43.88;29.80;;;2.10;99.90;;;;;;4958046;28;20476;-65
2021/12/06 00:48:26;;;;;;;45.35;29.48;;;2.10;99.90;;;;;;4964541;28;20509;-65
2021/12/06 00:50:52;;;;;;;48.53;29.85;;;2.10;99.90;;;;;;4940430;28;20039;-65
2021/12/06 00:53:17;;;;;;;45.45;29.77;;;2.10;99.90;;;;;;4958219;28;20042;-65
2021/12/06 00:55:43;;;;;;;45.00;30.92;;;2.10;99.90;;;;;;4959605;28;20079;-65
2021/12/06 00:58:09;;;;;;;42.05;27.85;;;2.10;99.90;;;;;;4960037;28;20100;-65
2021/12/06 01:00:42;;;;;;;44.95;29.73;;;2.10;99.90;;;;;;4963997;28;20471;-65
2021/12/06 01:03:12;;;;;;;44.67;30.95;;;2.10;99.90;;;;;;4948910;28;20058;-65
2021/12/06 01:05:39;;;;;;;46.65;29.65;;;2.10;99.90;;;;;;4959928;28;20124;-65
2021/12/06 01:08:04;;;;;;;45.35;28.10;;;2.10;99.90;;;;;;4958891;28;20030;-65
2021/12/06 01:10:32;;;;;;;41.65;28.50;;;2.10;99.90;;;;;;4961914;28;20113;-65
2021/12/06 01:12:58;;;;;;;47.30;30.95;;;2.20;99.90;;;;;;4935896;28;20057;-65
2021/12/06 01:15:25;;;;;;;49.17;30.70;;;2.20;99.90;;;;;;4965821;28;20066;-65
2021/12/06 01:17:50;;;;;;;47.38;29.98;;;2.10;99.90;;;;;;4955836;28;20043;-65
2021/12/06 01:20:21;;;;;;;49.40;31.13;;;2.20;99.90;;;;;;4964106;28;20447;-65
2021/12/06 01:22:53;;;;;;;46.30;30.58;;;2.10;99.90;;;;;;4956043;28;20043;-65
2021/12/06 01:28:14;;;;;;;43.72;29.63;;;2.20;99.90;;;;;;4954475;28;20155;-65
2021/12/06 01:39:11;;;;;;;48.10;31.15;;;2.10;99.90;;;;;;4938091;28;20116;-65
2021/12/06 01:41:40;;;;;;;50.42;30.90;;;2.20;99.90;;;;;;4943238;28;20046;-65
2021/12/06 01:44:12;;;;;;;48.17;30.98;;;2.20;99.90;;;;;;4958998;28;20039;-65
2021/12/06 01:46:46;;;;;;;50.92;30.88;;;2.20;99.90;;;;;;4961338;28;20502;-65
2021/12/06 01:49:14;;;;;;;48.70;30.05;;;2.20;99.90;;;;;;4955968;28;20034;-65
2021/12/06 01:51:39;;;;;;;50.70;31.80;;;2.20;99.90;;;;;;4963891;28;20109;-65
2021/12/06 01:54:07;;;;;;;49.03;30.75;;;2.20;99.90;;;;;;4940741;28;20441;-65
2021/12/06 01:56:33;;;;;;;48.95;31.50;;;2.20;99.90;;;;;;4962567;28;20538;-65
2021/12/06 01:58:59;;;;;;;45.78;30.67;;;2.20;99.90;;;;;;4942227;28;20050;-65
2021/12/06 02:01:25;;;;;;;51.78;33.40;;;2.20;99.90;;;;;;4944726;28;20031;-65
2021/12/06 02:03:51;;;;;;;48.60;30.95;;;2.30;99.90;;;;;;4955990;28;20813;-65
2021/12/06 02:06:17;;;;;;;48.30;31.27;;;2.30;99.90;;;;;;4959803;28;20082;-65
2021/12/06 02:08:42;;;;;;;49.55;30.83;;;2.20;99.90;;;;;;4937980;28;20062;-65
2021/12/06 02:11:09;;;;;;;49.00;30.60;;;2.20;99.90;;;;;;4945538;28;20055;-65
2021/12/06 02:14:21;;;;;;;47.40;29.95;;;2.20;99.90;;;;;;4939668;28;20067;-65
2021/12/06 02:16:37;;;;;;;47.30;29.50;;;2.20;99.90;;;;;;4943598;28;20047;-65
2021/12/06 02:19:05;;;;;;;47.20;29.27;;;2.30;99.90;;;;;;4942026;28;20035;-65
2021/12/06 02:21:34;;;;;;;47.13;29.95;;;2.30;99.90;;;;;;4943285;28;20142;-65
2021/12/06 02:24:04;;;;;;;49.67;30.60;;;2.30;99.90;;;;;;4942538;29;20090;-65
2021/12/06 02:26:30;;;;;;;52.47;32.35;;;2.30;99.90;;;;;;4944589;28;20035;-65
2021/12/06 02:28:56;;;;;;;48.75;31.95;;;2.30;99.90;;;;;;4945823;28;20035;-65
2021/12/06 02:31:25;;;;;;;51.03;31.92;;;2.30;99.90;;;;;;4942016;28;20105;-65
2021/12/06 02:33:51;;;;;;;47.85;31.55;;;2.30;99.90;;;;;;4940667;28;20106;-65
2021/12/06 02:36:18;;;;;;;45.67;29.38;;;2.30;99.90;;;;;;4938974;28;20043;-65
2021/12/06 02:38:45;;;;;;;45.78;29.05;;;2.30;99.90;;;;;;4943789;28;20386;-65
2021/12/06 02:41:14;;;;;;;41.83;28.27;;;2.30;99.90;;;;;;4941697;28;20081;-65
2021/12/06 02:43:41;;;;;;;43.30;28.80;;;2.30;99.90;;;;;;4941798;28;20454;-65
2021/12/06 02:46:07;;;;;;;41.22;26.95;;;2.30;99.90;;;;;;4942186;28;20057;-65
2021/12/06 02:48:33;;;;;;;40.80;27.90;;;2.30;99.90;;;;;;4948501;28;20047;-65
2021/12/06 02:51:02;;;;;;;42.38;28.52;;;2.30;99.90;;;;;;4935286;28;20094;-65
2021/12/06 02:53:30;;;;;;;43.65;28.60;;;2.30;99.90;;;;;;4942171;28;20448;-65
2021/12/06 02:55:59;;;;;;;45.15;29.10;;;2.30;99.90;;;;;;4939241;28;20043;-65
2021/12/06 03:01:18;;;;;;;41.33;27.83;;;2.30;99.90;;;;;;4939760;28;20043;-65
2021/12/06 03:03:44;;;;;;;46.17;28.67;;;2.30;99.90;;;;;;4942800;28;20166;-65
2021/12/06 03:06:11;;;;;;;45.65;28.85;;;2.30;99.90;;;;;;4938875;28;20547;-65
2021/12/06 03:08:48;;;;;;;46.35;29.83;;;2.30;99.90;;;;;;4956348;28;20101;-65
2021/12/06 03:11:30;;;;;;;50.00;31.45;;;2.30;99.90;;;;;;4962332;28;20109;-65
2021/12/06 03:13:56;;;;;;;43.72;28.77;;;2.30;99.90;;;;;;4966123;28;20031;-65
2021/12/06 03:16:22;;;;;;;49.22;29.52;;;2.30;99.90;;;;;;4956552;28;20035;-65
2021/12/06 03:18:50;;;;;;;48.05;30.25;;;2.30;99.90;;;;;;4964656;28;20372;-65
2021/12/06 03:21:16;;;;;;;46.58;30.65;;;2.30;99.90;;;;;;4962493;28;20045;-65
2021/12/06 03:23:42;;;;;;;53.55;31.85;;;2.30;99.90;;;;;;4957610;28;20134;-65
2021/12/06 03:26:08;;;;;;;51.03;29.90;;;2.30;99.90;;;;;;4960313;28;20043;-65
2021/12/06 03:28:39;;;;;;;51.38;32.13;;;2.30;99.90;;;;;;4958078;28;20027;-65
2021/12/06 03:31:06;;;;;;;57.55;32.72;;;2.30;99.90;;;;;;4946898;28;20130;-65
2021/12/06 03:33:35;;;;;;;60.72;34.58;;;2.30;99.90;;;;;;4960709;28;20131;-65
2021/12/06 03:36:05;;;;;;;54.28;31.80;;;2.30;99.90;;;;;;4960819;28;20042;-65
2021/12/06 03:38:31;;;;;;;62.13;35.40;;;2.30;99.90;;;;;;4952365;28;20096;-65
2021/12/06 03:40:56;;;;;;;57.50;32.17;;;2.30;99.90;;;;;;4959432;28;20459;-65
2021/12/06 03:43:22;;;;;;;59.33;34.50;;;2.30;99.90;;;;;;4958824;28;20093;-65
2021/12/06 03:45:48;;;;;;;57.83;33.70;;;2.40;99.90;;;;;;4965743;28;20050;-65
2021/12/06 03:48:14;;;;;;;60.15;33.85;;;2.30;99.90;;;;;;4956914;28;20459;-65
2021/12/06 03:50:40;;;;;;;58.05;33.67;;;2.40;99.90;;;;;;4962503;28;20031;-65
2021/12/06 03:53:06;;;;;;;57.13;33.20;;;2.40;99.90;;;;;;4959578;28;20047;-65
2021/12/06 03:55:32;;;;;;;59.85;32.67;;;2.40;99.90;;;;;;4963467;28;20086;-65
2021/12/06 03:57:57;;;;;;;61.53;34.72;;;2.40;99.90;;;;;;4939642;28;20514;-65
2021/12/06 04:00:23;;;;;;;55.58;32.42;;;2.40;99.90;;;;;;4962503;28;20046;-65
2021/12/06 04:02:49;;;;;;;51.80;30.77;;;2.40;99.90;;;;;;4962903;28;20035;-65
2021/12/06 04:05:15;;;;;;;57.97;33.28;;;2.40;99.90;;;;;;4956658;28;20492;-65
2021/12/06 04:07:41;;;;;;;54.80;32.67;;;2.40;99.90;;;;;;4967187;28;20506;-65
2021/12/06 04:10:09;;;;;;;57.53;33.90;;;2.40;99.90;;;;;;4957446;28;20074;-65
2021/12/06 04:12:35;;;;;;;57.75;34.30;;;2.40;99.90;;;;;;4959946;28;20057;-65
2021/12/06 04:15:03;;;;;;;53.42;32.08;;;2.50;99.90;;;;;;4959190;28;20062;-65
2021/12/06 04:17:29;;;;;;;54.70;32.00;;;2.40;99.90;;;;;;4958616;28;20492;-65
2021/12/06 04:19:55;;;;;;;55.25;31.58;;;2.40;99.90;;;;;;4954312;28;20129;-65
2021/12/06 04:22:21;;;;;;;54.33;31.92;;;2.50;99.90;;;;;;4962002;28;20049;-65
2021/12/06 04:24:47;;;;;;;56.85;30.67;;;2.50;99.90;;;;;;4958335;28;20043;-65
2021/12/06 04:27:14;;;;;;;54.80;31.98;;;2.50;99.90;;;;;;4962130;28;20045;-65
2021/12/06 04:29:46;;;;;;;57.83;32.38;;;2.50;99.90;;;;;;4953245;28;20097;-65
2021/12/06 04:32:12;;;;;;;55.53;31.33;;;2.50;99.90;;;;;;4962074;28;20139;-65
2021/12/06 04:34:38;;;;;;;58.42;32.85;;;2.50;99.90;;;;;;4939564;28;20058;-65
2021/12/06 04:37:05;;;;;;;59.17;33.20;;;2.50;99.90;;;;;;4964972;28;20049;-65
2021/12/06 04:39:31;;;;;;;57.75;33.47;;;2.50;99.90;;;;;;4955993;28;20046;-65
2021/12/06 04:41:56;;;;;;;64.20;35.35;;;2.50;99.90;;;;;;4941353;28;20117;-65
2021/12/06 04:44:23;;;;;;;62.33;33.75;;;2.50;99.90;;;;;;4961495;28;20550;-65
2021/12/06 04:46:49;;;;;;;68.85;36.47;;;2.50;99.90;;;;;;4952129;28;20035;-65
2021/12/06 04:49:15;;;;;;;66.88;34.70;;;2.50;99.90;;;;;;4943848;28;20519;-65
2021/12/06 04:51:46;;;;;;;68.32;34.47;;;2.50;99.90;;;;;;4936656;28;20087;-65
2021/12/06 04:54:15;;;;;;;75.05;34.53;;;2.50;99.90;;;;;;4941818;28;20135;-65
2021/12/06 04:56:45;;;;;;;63.50;35.67;;;2.50;99.90;;;;;;4956806;28;20376;-65
2021/12/06 04:59:25;;;;;;;63.38;35.38;;;2.50;99.90;;;;;;4927692;28;20370;-65
2021/12/06 05:01:55;;;;;;;59.63;33.72;;;2.50;99.90;;;;;;4951860;28;20631;-65
2021/12/06 05:04:26;;;;;;;64.55;32.78;;;2.50;99.90;;;;;;4958906;28;20066;-65
2021/12/06 05:06:54;;;;;;;53.47;31.17;;;2.50;99.90;;;;;;4956239;28;20031;-65
2021/12/06 05:09:28;;;;;;;61.28;30.98;;;2.50;99.90;;;;;;4960991;28;20133;-65
2021/12/06 05:11:53;;;;;;;54.88;31.00;;;2.50;99.90;;;;;;4959778;28;20476;-65
2021/12/06 05:14:20;;;;;;;57.63;31.52;;;2.50;99.90;;;;;;4963207;28;20066;-65
2021/12/06 05:16:46;;;;;;;55.72;28.60;;;2.50;99.90;;;;;;4955539;28;20078;-65
2021/12/06 05:19:12;;;;;;;57.38;29.70;;;2.50;99.90;;;;;;4976746;28;20133;-65
2021/12/06 05:21:38;;;;;;;55.25;31.27;;;2.50;99.90;;;;;;4959106;28;20122;-65
2021/12/06 05:24:06;;;;;;;59.50;31.02;;;2.50;99.90;;;;;;4962072;28;20031;-65
2021/12/06 05:26:32;;;;;;;59.47;30.33;;;2.50;99.90;;;;;;4956908;28;20047;-65
2021/12/06 05:29:01;;;;;;;58.85;30.65;;;2.50;99.90;;;;;;4961928;28;20058;-65
2021/12/06 05:31:28;;;;;;;56.42;30.98;;;2.50;99.90;;;;;;4960300;28;20053;-65
2021/12/06 05:34:00;;;;;;;64.70;33.35;;;2.50;99.90;;;;;;4958191;28;20038;-65
2021/12/06 05:36:26;;;;;;;66.38;33.95;;;2.50;99.90;;;;;;4939702;28;20085;-65
2021/12/06 05:38:53;;;;;;;71.22;34.55;;;2.50;99.90;;;;;;4957631;28;20053;-65
2021/12/06 05:41:20;;;;;;;65.90;33.40;;;2.50;99.90;;;;;;4961907;28;20543;-65
2021/12/06 05:43:47;;;;;;;68.28;34.30;;;2.50;99.90;;;;;;4955569;28;20488;-65
2021/12/06 05:46:13;;;;;;;73.78;34.72;;;2.50;99.90;;;;;;4960243;28;20074;-65
2021/12/06 05:48:39;;;;;;;73.53;36.00;;;2.50;99.90;;;;;;4955928;28;20051;-65
2021/12/06 05:51:05;;;;;;;75.47;35.63;;;2.50;99.90;;;;;;4964280;28;20089;-65
2021/12/06 05:53:31;;;;;;;79.78;35.75;;;2.50;99.90;;;;;;4962785;28;20045;-65
2021/12/06 05:55:57;;;;;;;78.22;35.63;;;2.50;99.90;;;;;;4945483;28;20487;-65
2021/12/06 05:58:29;;;;;;;73.47;36.03;;;2.50;99.90;;;;;;4957171;28;20154;-65
2021/12/06 06:00:56;;;;;;;80.57;35.33;;;2.50;99.90;;;;;;4962284;28;20480;-65
2021/12/06 06:03:22;;;;;;;69.60;34.35;;;2.60;99.90;;;;;;4963857;28;20126;-65
2021/12/06 06:05:48;;;;;;;72.03;35.03;;;2.60;99.90;;;;;;4963687;28;20074;-65
2021/12/06 06:08:16;;;;;;;68.78;34.22;;;2.60;99.90;;;;;;4960223;28;20097;-65
2021/12/06 06:10:41;;;;;;;72.05;33.65;;;2.60;99.90;;;;;;4965241;28;20367;-65
2021/12/06 06:13:08;;;;;;;77.13;36.13;;;2.60;99.90;;;;;;4957592;28;20051;-65
2021/12/06 06:15:35;;;;;;;69.95;33.85;;;2.60;99.90;;;;;;4960856;28;20482;-65
2021/12/06 06:18:01;;;;;;;68.03;34.38;;;2.60;99.90;;;;;;4944153;28;20065;-65
2021/12/06 06:20:37;;;;;;;73.25;34.05;;;2.60;99.90;;;;;;4955339;28;20090;-65
2021/12/06 06:23:04;;;;;;;68.13;32.97;;;2.60;99.90;;;;;;4967613;28;20387;-65
2021/12/06 06:25:30;;;;;;;78.57;35.83;;;2.60;99.90;;;;;;4957135;28;20039;-65
2021/12/06 06:27:56;;;;;;;76.03;33.90;;;2.60;99.90;;;;;;4969470;28;20638;-65
2021/12/06 06:30:22;;;;;;;75.68;35.50;;;2.60;99.90;;;;;;4959202;28;20167;-65
2021/12/06 06:32:48;;;;;;;81.70;36.72;;;2.60;99.90;;;;;;4965000;28;20085;-65
2021/12/06 06:35:16;;;;;;;74.45;35.42;;;2.60;99.90;;;;;;4956209;28;20411;-65
2021/12/06 06:37:42;;;;;;;82.57;38.25;;;2.60;99.90;;;;;;4965430;28;20051;-65
2021/12/06 06:40:10;;;;;;;83.50;37.13;;;2.60;99.90;;;;;;4957806;28;20372;-65
2021/12/06 06:42:35;;;;;;;81.97;36.67;;;2.60;99.90;;;;;;4959196;28;20372;-65
2021/12/06 06:45:03;;;;;;;89.70;38.88;;;2.60;99.90;;;;;;4939176;28;20078;-65
2021/12/06 06:47:28;;;;;;;88.25;38.42;;;2.60;99.90;;;;;;4966802;28;20043;-65
2021/12/06 06:49:54;;;;;;;83.43;39.10;;;2.60;99.90;;;;;;4961973;28;20045;-65
2021/12/06 06:52:20;;;;;;;83.32;34.25;;;2.50;99.90;;;;;;4962577;28;20435;-65
2021/12/06 06:54:46;;;;;;;78.55;37.17;;;2.60;99.90;;;;;;4959473;28;20071;-65
2021/12/06 06:57:11;;;;;;;83.43;36.47;;;2.60;99.90;;;;;;4967737;28;20601;-65
2021/12/06 06:59:38;;;;;;;80.32;39.10;;;2.70;99.90;;;;;;4965213;28;20038;-65
2021/12/06 07:02:04;;;;;;;77.45;37.92;;;2.60;99.90;;;;;;4956647;28;20039;-65
2021/12/06 07:04:30;;;;;;;80.55;37.58;;;2.60;99.90;;;;;;4968543;28;20048;-64
2021/12/06 07:06:56;;;;;;;86.38;37.97;;;2.60;99.90;;;;;;4942297;28;20376;-64
2021/12/06 07:09:22;;;;;;;89.15;39.15;;;2.60;99.90;;;;;;4966978;28;20066;-64
2021/12/06 07:11:50;;;;;;;78.50;38.28;;;2.60;99.90;;;;;;4956616;28;20063;-64
2021/12/06 07:14:16;;;;;;;79.07;36.35;;;2.60;99.90;;;;;;4962761;28;20981;-64
2021/12/06 07:16:44;;;;;;;74.60;34.42;;;2.60;99.90;;;;;;4957619;28;20042;-64
2021/12/06 07:19:10;;;;;;;73.72;32.95;;;2.60;99.90;;;;;;4964197;28;20036;-64
2021/12/06 07:21:36;;;;;;;68.80;32.75;;;2.60;99.90;;;;;;4956382;28;20417;-64
2021/12/06 07:24:03;;;;;;;63.97;31.48;;;2.60;99.90;;;;;;4961124;28;20522;-64
2021/12/06 07:26:29;;;;;;;64.57;32.90;;;2.60;99.90;;;;;;4936721;28;20049;-64
2021/12/06 07:28:55;;;;;;;63.10;31.55;;;2.50;99.90;;;;;;4965497;28;20039;-64
2021/12/06 07:31:25;;;;;;;62.15;31.38;;;2.50;99.90;;;;;;4940662;28;20043;-64
2021/12/06 07:33:52;;;;;;;66.90;32.55;;;2.50;99.90;;;;;;4962657;28;20184;-64
2021/12/06 07:36:20;;;;;;;70.85;33.97;;;2.50;99.90;;;;;;4946155;28;20042;-64
2021/12/06 07:38:46;;;;;;;64.97;30.98;;;2.40;99.90;;;;;;4959024;28;20054;-64
2021/12/06 07:41:16;;;;;;;63.42;31.60;;;2.40;99.90;;;;;;4945934;28;20038;-64
2021/12/06 07:43:42;;;;;;;67.68;32.58;;;2.40;99.90;;;;;;4945172;28;20108;-64
2021/12/06 07:46:08;;;;;;;70.22;31.45;;;2.40;99.90;;;;;;4969967;28;20461;-64
2021/12/06 07:48:34;;;;;;;59.72;30.58;;;2.40;99.90;;;;;;4959439;28;20165;-64
2021/12/06 07:51:01;;;;;;;68.20;32.40;;;2.40;99.90;;;;;;4963383;28;20041;-64
2021/12/06 07:53:29;;;;;;;71.15;33.70;;;2.30;99.90;;;;;;4954159;28;20042;-64
2021/12/06 07:55:55;;;;;;;65.07;31.15;;;2.40;99.90;;;;;;4967750;28;20049;-64
2021/12/06 07:58:22;;;;;;;67.03;32.17;;;2.40;99.90;;;;;;4957928;28;20121;-64
2021/12/06 08:00:49;;;;;;;64.82;32.10;;;2.30;99.90;;;;;;4961785;28;20031;-65
2021/12/06 08:03:18;;;;;;;64.70;32.30;;;2.30;99.90;;;;;;4959062;28;20052;-64
2021/12/06 08:05:47;;;;;;;67.80;31.67;;;2.30;99.90;;;;;;4960239;28;20126;-64
2021/12/06 08:08:22;;;;;;;62.75;30.35;;;2.30;99.90;;;;;;4956933;28;20042;-64
2021/12/06 08:10:51;;;;;;;62.13;31.60;;;2.30;99.90;;;;;;4961271;28;20047;-64
2021/12/06 08:13:20;;;;;;;60.95;30.88;;;2.30;99.90;;;;;;4955973;28;20034;-64
2021/12/06 08:15:47;;;;;;;55.88;28.13;;;2.20;99.90;;;;;;4961458;28;20047;-64
2021/12/06 08:18:12;;;;;;;55.20;28.50;;;2.20;99.90;;;;;;4955131;28;20053;-64
2021/12/06 08:20:41;;;;;;;59.33;29.08;;;2.20;99.90;;;;;;4962981;28;20487;-64
2021/12/06 08:23:07;;;;;;;56.55;29.52;;;2.20;99.90;;;;;;4951492;28;20045;-64
2021/12/06 08:25:33;;;;;;;53.83;29.35;;;2.20;99.90;;;;;;4958322;28;20523;-64
2021/12/06 08:27:59;;;;;;;59.20;28.55;;;2.20;99.90;;;;;;4962767;28;20047;-64
2021/12/06 08:30:26;;;;;;;58.05;28.75;;;2.20;99.90;;;;;;4955994;28;20046;-64
2021/12/06 08:33:00;;;;;;;55.67;27.25;;;2.10;99.90;;;;;;4962641;28;20050;-64
2021/12/06 08:35:27;;;;;;;56.85;27.80;;;2.10;99.90;;;;;;4956483;28;20062;-64
2021/12/06 08:37:55;;;;;;;56.47;27.98;;;2.10;99.90;;;;;;4962686;28;20030;-64
2021/12/06 08:40:21;;;;;;;53.97;28.17;;;2.10;99.90;;;;;;4954445;28;20126;-64
2021/12/06 08:42:47;;;;;;;51.90;29.30;;;2.10;99.90;;;;;;4959694;28;20074;-64
2021/12/06 08:45:14;;;;;;;55.22;30.60;;;2.10;99.90;;;;;;4953788;28;20227;-64
2021/12/06 08:47:41;;;;;;;65.90;34.33;;;2.20;99.90;;;;;;4964330;28;20443;-64
2021/12/06 08:50:10;;;;;;;72.03;39.42;;;2.20;99.90;;;;;;4955700;28;20082;-64
2021/12/06 08:52:36;;;;;;;77.97;40.28;;;2.20;99.90;;;;;;4943609;28;20043;-64
2021/12/06 08:55:04;;;;;;;82.07;43.63;;;2.20;99.90;;;;;;4955003;28;20036;-64
2021/12/06 08:57:30;;;;;;;85.13;44.78;;;2.20;99.90;;;;;;4962585;28;20118;-64
2021/12/06 08:59:56;;;;;;;93.20;45.30;;;2.20;99.90;;;;;;4956862;28;20125;-64
2021/12/06 09:02:22;;;;;;;88.22;44.42;;;2.20;99.90;;;;;;4959924;28;20057;-64
2021/12/06 09:04:48;;;;;;;88.70;43.47;;;2.20;99.90;;;;;;4972170;28;20035;-63
2021/12/06 09:07:15;;;;;;;87.22;44.88;;;2.20;99.90;;;;;;4948743;28;20055;-63
2021/12/06 09:09:46;;;;;;;91.97;46.85;;;2.30;99.90;;;;;;4963174;28;20086;-63
2021/12/06 09:12:24;;;;;;;90.68;45.50;;;2.20;99.90;;;;;;4954132;28;20102;-63
2021/12/06 09:14:52;;;;;;;90.28;44.22;;;2.30;99.90;;;;;;4949438;28;20499;-63
2021/12/06 09:17:18;;;;;;;81.63;40.67;;;2.20;99.90;;;;;;4955840;28;20039;-63
2021/12/06 09:19:45;;;;;;;77.75;39.17;;;2.20;99.90;;;;;;4949901;28;20188;-64
2021/12/06 09:22:12;;;;;;;76.78;38.42;;;2.30;99.90;;;;;;4957503;28;20051;-64
2021/12/06 09:24:38;;;;;;;64.30;34.38;;;2.30;99.90;;;;;;4965063;28;20098;-64
2021/12/06 09:27:05;;;;;;;57.75;32.22;;;2.30;99.90;;;;;;4956702;28;20077;-64
2021/12/06 09:29:33;;;;;;;56.22;32.92;;;2.40;99.90;;;;;;4969149;28;20439;-64
2021/12/06 09:32:00;;;;;;;60.38;32.47;;;2.40;99.90;;;;;;4958197;28;20439;-64
2021/12/06 09:34:28;;;;;;;57.33;30.42;;;2.30;99.90;;;;;;4968104;28;20114;-64
2021/12/06 09:36:54;;;;;;;48.75;27.83;;;2.40;99.90;;;;;;4937596;28;20054;-64
2021/12/06 09:39:21;;;;;;;47.03;28.08;;;2.40;99.90;;;;;;4963710;28;20555;-64
2021/12/06 09:41:47;;;;;;;47.70;27.45;;;2.40;99.90;;;;;;4960748;28;20372;-64
2021/12/06 09:44:14;;;;;;;52.15;27.45;;;2.40;99.90;;;;;;4948189;28;20058;-64
2021/12/06 09:46:40;;;;;;;42.33;26.90;;;2.50;99.90;;;;;;4959662;28;20563;-64
2021/12/06 09:49:13;;;;;;;42.00;26.08;;;2.50;99.90;;;;;;4960713;28;20034;-64
2021/12/06 09:51:43;;;;;;;45.63;25.98;;;2.60;99.90;;;;;;4959391;28;20110;-64
2021/12/06 09:54:09;;;;;;;38.42;23.05;;;2.70;99.90;;;;;;4964666;28;20054;-64
2021/12/06 09:56:39;;;;;;;45.47;24.60;;;2.70;99.90;;;;;;4966281;28;20038;-64
2021/12/06 09:59:09;;;;;;;41.50;24.48;;;2.70;99.90;;;;;;4962510;28;20047;-64
2021/12/06 10:01:43;;;;;;;41.38;24.40;;;2.70;99.90;;;;;;4967880;28;20043;-64
2021/12/06 10:04:12;;;;;;;40.00;23.88;;;2.80;99.90;;;;;;4955263;28;20047;-64
2021/12/06 10:06:38;;;;;;;37.80;24.17;;;2.80;99.90;;;;;;4964124;28;20739;-64
2021/12/06 10:09:07;;;;;;;41.88;24.10;;;2.90;99.90;;;;;;4963852;28;20047;-64
2021/12/06 10:11:33;;;;;;;41.00;23.92;;;2.80;99.90;;;;;;4968003;28;20499;-64
2021/12/06 10:14:00;;;;;;;39.55;24.08;;;2.90;99.90;;;;;;4958134;28;20042;-64
2021/12/06 10:16:26;;;;;;;41.45;22.98;;;2.90;99.90;;;;;;4961509;28;20043;-64
2021/12/06 10:18:53;;;;;;;37.90;23.35;;;2.90;99.90;;;;;;4958750;28;20039;-64
2021/12/06 10:21:23;;;;;;;41.15;24.58;;;2.90;99.90;;;;;;4964178;28;20122;-64
2021/12/06 10:23:50;;;;;;;37.92;23.25;;;2.90;99.90;;;;;;4942540;28;20081;-64
2021/12/06 10:26:20;;;;;;;38.17;23.88;;;2.90;99.90;;;;;;4962151;28;20030;-64
2021/12/06 10:28:46;;;;;;;36.78;23.73;;;2.90;99.90;;;;;;4940333;28;20049;-64
2021/12/06 10:31:14;;;;;;;38.78;23.90;;;2.90;99.90;;;;;;4944739;28;20043;-64
2021/12/06 10:33:46;;;;;;;36.03;21.95;;;3.00;99.90;;;;;;4958356;28;20117;-64
2021/12/06 10:36:15;;;;;;;35.55;21.30;;;2.90;99.90;;;;;;4952228;28;20058;-64
2021/12/06 10:38:53;;;;;;;29.33;19.48;;;2.90;99.90;;;;;;4955845;28;20035;-64
2021/12/06 10:41:22;;;;;;;32.78;19.75;;;3.00;99.90;;;;;;4961109;28;20118;-64
2021/12/06 10:44:03;;;;;;;32.20;19.20;;;2.90;99.90;;;;;;4961383;28;20053;-64
2021/12/06 10:46:30;;;;;;;32.35;20.02;;;2.90;99.90;;;;;;4966413;28;20027;-65
2021/12/06 10:49:01;;;;;;;30.55;19.35;;;2.90;99.90;;;;;;4957746;28;20113;-63
2021/12/06 10:51:27;;;;;;;31.25;20.40;;;2.90;99.90;;;;;;4959896;28;20400;-65
2021/12/06 10:54:02;;;;;;;29.70;18.38;;;2.90;99.90;;;;;;4966817;28;20260;-66
2021/12/06 10:56:41;;;;;;;31.85;19.17;;;2.90;99.90;;;;;;4962376;28;20137;-65
2021/12/06 10:59:16;;;;;;;32.65;19.80;;;3.00;99.90;;;;;;4960626;28;20074;-65
2021/12/06 11:01:42;;;;;;;31.55;20.13;;;3.00;99.90;;;;;;4962485;28;20035;-65
2021/12/06 11:04:12;;;;;;;31.65;20.20;;;3.00;99.90;;;;;;4964795;28;20139;-65
2021/12/06 11:06:44;;;;;;;36.78;21.67;;;3.00;99.90;;;;;;4956154;28;20046;-65
2021/12/06 11:09:16;;;;;;;32.65;20.48;;;3.00;99.90;;;;;;4964815;28;20420;-65
2021/12/06 11:11:49;;;;;;;34.85;20.60;;;3.00;99.90;;;;;;4960177;28;20046;-65
2021/12/06 11:14:22;;;;;;;35.75;21.63;;;3.00;99.90;;;;;;4967132;28;20058;-65
2021/12/06 11:16:52;;;;;;;34.72;20.70;;;3.00;99.90;;;;;;4959480;28;20042;-65
2021/12/06 11:19:20;;;;;;;39.30;22.55;;;3.00;99.90;;;;;;4965945;28;20043;-65
2021/12/06 11:22:01;;;;;;;38.00;21.63;;;3.00;99.90;;;;;;4962886;28;20098;-65
2021/12/06 11:24:32;;;;;;;38.95;22.95;;;3.00;99.90;;;;;;4968790;28;20061;-65
2021/12/06 11:27:10;;;;;;;41.05;23.10;;;3.10;99.90;;;;;;4960594;28;20085;-65
2021/12/06 11:29:42;;;;;;;41.28;23.15;;;3.10;99.90;;;;;;4964134;28;20456;-65
2021/12/06 11:32:21;;;;;;;40.20;23.48;;;3.10;99.90;;;;;;4958718;28;20682;-65
2021/12/06 11:34:51;;;;;;;43.55;23.95;;;3.10;99.90;;;;;;4965396;28;20047;-65
2021/12/06 11:37:25;;;;;;;37.00;21.95;;;3.20;99.90;;;;;;4952492;28;20043;-65
2021/12/06 11:40:00;;;;;;;39.42;22.02;;;3.20;99.90;;;;;;4959484;28;20045;-67
2021/12/06 11:42:25;;;;;;;;;;;3.20;99.90;;;;;;4963043;28;20026;-65
2021/12/06 11:44:51;;;;;;;33.63;19.00;;;3.30;99.90;;;;;;4961045;28;20016;-65
2021/12/06 11:47:19;;;;;;;34.80;20.98;;;3.20;99.90;;;;;;4955078;28;20043;-65
2021/12/06 11:49:54;;;;;;;35.55;21.02;;;3.30;99.90;;;;;;4965691;28;20047;-65
2021/12/06 11:52:25;;;;;;;35.45;21.67;;;3.30;99.90;;;;;;4954709;28;20050;-65
2021/12/06 11:54:57;;;;;;;38.15;20.73;;;3.30;99.90;;;;;;4961391;28;20074;-65
2021/12/06 11:57:33;;;;;;;32.22;21.40;;;3.40;99.90;;;;;;4955353;28;20085;-65
2021/12/06 12:00:16;;;;;;;40.13;22.73;;;3.40;99.90;;;;;;4962160;28;20151;-63
2021/12/06 12:02:56;;;;;;;33.60;20.77;;;3.40;99.90;;;;;;4951080;28;20335;-63
2021/12/06 12:05:32;;;;;;;34.28;21.60;;;3.30;99.90;;;;;;4958279;28;20055;-63
2021/12/06 12:08:00;;;;;;;37.97;22.08;;;3.30;99.90;;;;;;4957128;28;20039;-63
2021/12/06 12:10:35;;;;;;;42.00;22.45;;;3.40;99.90;;;;;;4943973;28;20047;-64
2021/12/06 12:13:01;;;;;;;;;;;3.40;99.90;;;;;;4954056;28;20042;-64
2021/12/06 12:15:27;;;;;;;40.85;23.02;;;3.40;99.90;;;;;;4964601;28;20491;-64
2021/12/06 12:17:53;;;;;;;36.72;21.58;;;3.40;99.90;;;;;;4955282;28;20047;-64
2021/12/06 12:20:23;;;;;;;42.22;23.30;;;3.40;99.90;;;;;;4961421;28;20087;-64
2021/12/06 12:22:57;;;;;;;37.50;23.58;;;3.50;99.90;;;;;;4939788;28;20126;-64
2021/12/06 12:25:30;;;;;;;41.83;25.05;;;3.40;99.90;;;;;;4959331;28;20141;-64
2021/12/06 12:28:06;;;;;;;42.67;24.52;;;3.50;99.90;;;;;;4953890;28;20472;-64
2021/12/06 12:30:34;;;;;;;42.55;25.10;;;3.50;99.90;;;;;;4965232;28;20043;-64
2021/12/06 12:33:02;;;;;;;44.13;26.35;;;3.50;99.90;;;;;;4956196;28;20043;-64
2021/12/06 12:35:29;;;;;;;43.33;24.67;;;3.40;99.90;;;;;;4960875;28;20043;-64
2021/12/06 12:37:56;;;;;;;49.95;26.17;;;3.40;99.90;;;;;;4961954;28;20441;-64
2021/12/06 12:40:28;;;;;;;49.70;27.60;;;3.40;99.90;;;;;;4959847;28;20047;-64
2021/12/06 12:43:10;;;;;;;52.45;28.15;;;3.40;99.90;;;;;;4944707;28;20039;-64
2021/12/06 12:45:40;;;;;;;50.63;28.40;;;3.40;99.90;;;;;;4963494;28;20046;-64
2021/12/06 12:48:07;;;;;;;60.13;31.77;;;3.40;99.90;;;;;;4960660;28;20495;-64
2021/12/06 12:50:33;;;;;;;57.55;31.83;;;3.50;99.90;;;;;;4960647;28;20558;-64
2021/12/06 12:53:17;;;;;;;56.85;31.60;;;3.40;99.90;;;;;;4949143;28;20045;-64
2021/12/06 12:55:48;;;;;;;56.88;32.47;;;3.50;99.90;;;;;;4957115;28;20043;-64
2021/12/06 12:58:19;;;;;;;55.42;31.08;;;3.50;99.90;;;;;;4957039;28;20047;-64